createdAt,value
2019-05-20T00:03:17.856Z,57.46
2019-05-20T00:06:47.995Z,57.6
2019-05-20T00:10:18.144Z,57.78
2019-05-20T00:13:48.173Z,57.92
2019-05-20T00:17:18.309Z,58.07
2019-05-20T00:20:48.314Z,58.24
2019-05-20T00:24:18.381Z,58.45
2019-05-20T00:27:48.519Z,58.63
2019-05-20T00:31:18.564Z,58.82
2019-05-20T00:34:48.733Z,59.02
2019-05-20T00:38:18.826Z,59.22
2019-05-20T00:41:48.995Z,59.41
2019-05-20T00:45:19.234Z,59.59
2019-05-20T00:48:49.219Z,59.74
2019-05-20T00:52:19.318Z,59.9
2019-05-20T00:55:49.457Z,60.07
2019-05-20T00:59:19.730Z,60.27
2019-05-20T01:00:15.445Z,60.34
2019-05-20T01:03:45.445Z,60.54
2019-05-20T01:07:15.607Z,60.76
2019-05-20T01:10:45.772Z,60.96
2019-05-20T01:14:15.905Z,61.15
2019-05-20T01:17:45.985Z,61.3
2019-05-20T01:21:16.142Z,61.47
2019-05-20T01:24:46.259Z,61.6
2019-05-20T01:28:16.337Z,61.73
2019-05-20T01:31:46.450Z,61.85
2019-05-20T01:35:16.651Z,61.96
2019-05-20T01:38:46.617Z,62.04
2019-05-20T01:42:16.617Z,62.14
2019-05-20T01:45:46.747Z,62.22
2019-05-20T01:49:16.802Z,62.28
2019-05-20T01:52:46.830Z,62.33
2019-05-20T01:56:16.962Z,62.41
2019-05-20T01:59:47.034Z,62.45
2019-05-20T02:03:30.356Z,62.49
2019-05-20T02:07:02.156Z,62.54
2019-05-20T02:10:32.285Z,62.58
2019-05-20T02:14:06.743Z,62.61
2019-05-20T02:17:36.897Z,62.61
2019-05-20T02:21:06.907Z,62.64
2019-05-20T02:24:37.001Z,62.67
2019-05-20T02:28:07.042Z,62.67
2019-05-20T02:31:37.142Z,62.68
2019-05-20T02:35:07.339Z,62.69
2019-05-20T02:38:37.440Z,62.68
2019-05-20T02:42:07.708Z,62.67
2019-05-20T02:45:37.755Z,62.68
2019-05-20T02:49:07.827Z,62.65
2019-05-20T02:52:37.887Z,62.61
2019-05-20T02:56:07.965Z,62.61
2019-05-20T02:59:38.226Z,62.58
2019-05-20T03:00:14.644Z,62.58
2019-05-20T03:03:44.669Z,62.57
2019-05-20T03:07:14.780Z,62.52
2019-05-20T03:10:44.971Z,62.53
2019-05-20T03:14:15.048Z,62.49
2019-05-20T03:17:45.195Z,62.46
2019-05-20T03:21:15.167Z,62.43
2019-05-20T03:24:45.158Z,62.39
2019-05-20T03:28:15.371Z,62.35
2019-05-20T03:31:45.342Z,62.29
2019-05-20T03:35:15.500Z,62.25
2019-05-20T03:38:45.621Z,62.2
2019-05-20T03:42:15.683Z,62.11
2019-05-20T03:45:45.710Z,62.02
2019-05-20T03:49:15.805Z,61.95
2019-05-20T03:52:45.836Z,61.86
2019-05-20T05:06:37.453Z,60.04
2019-05-20T05:10:09.149Z,59.97
2019-05-20T05:13:39.323Z,59.93
2019-05-20T05:17:09.485Z,59.88
2019-05-20T05:20:39.690Z,59.81
2019-05-20T05:24:09.962Z,59.74
2019-05-20T05:27:40.035Z,59.67
2019-05-20T05:31:10.195Z,59.6
2019-05-20T05:34:40.257Z,59.52
2019-05-20T05:38:10.362Z,59.43
2019-05-20T05:41:40.404Z,59.32
2019-05-20T05:45:10.746Z,59.19
2019-05-20T05:48:40.839Z,59.05
2019-05-20T05:52:10.892Z,58.9
2019-05-20T05:55:41.007Z,58.73
2019-05-20T05:59:11.040Z,58.57
2019-05-20T06:02:41.153Z,58.36
2019-05-20T06:06:13.084Z,58.13
2019-05-20T06:09:43.513Z,57.89
2019-05-20T06:13:13.534Z,57.63
2019-05-20T06:16:43.674Z,57.32
2019-05-20T06:20:15.530Z,57.05
2019-05-20T06:23:45.686Z,56.77
2019-05-20T06:27:15.745Z,56.47
2019-05-20T06:30:46.862Z,56.15
2019-05-20T06:34:17.070Z,55.79
2019-05-20T06:37:52.071Z,55.44
2019-05-20T06:41:22.171Z,55.06
2019-05-20T06:44:55.045Z,54.7
2019-05-20T06:48:27.346Z,54.36
2019-05-20T06:51:57.341Z,54.04
2019-05-20T06:55:27.408Z,53.75
2019-05-20T06:58:57.539Z,53.5
2019-05-20T07:00:33.375Z,53.4
2019-05-20T07:04:03.496Z,53.16
2019-05-20T07:07:33.609Z,52.95
2019-05-20T07:11:03.778Z,52.76
2019-05-20T07:14:33.947Z,52.6
2019-05-20T07:18:04.088Z,52.42
2019-05-20T07:21:34.116Z,52.31
2019-05-20T07:25:04.312Z,52.19
2019-05-20T07:28:34.402Z,52.1
2019-05-20T07:32:04.517Z,52.03
2019-05-20T07:35:34.624Z,51.94
2019-05-20T07:39:05.737Z,51.86
2019-05-20T07:42:35.873Z,51.79
2019-05-20T07:46:07.948Z,51.7
2019-05-20T07:49:38.456Z,51.6
2019-05-20T07:53:10.537Z,51.5
2019-05-20T07:56:44.413Z,51.41
2019-05-20T08:00:14.752Z,51.3
2019-05-20T08:03:44.862Z,51.2
2019-05-20T08:07:27.650Z,51.08
2019-05-20T08:11:06.294Z,50.99
2019-05-20T08:14:36.406Z,50.89
2019-05-20T08:18:06.518Z,50.74
2019-05-20T08:21:36.797Z,50.61
2019-05-20T08:25:07.459Z,50.49
2019-05-20T08:28:37.484Z,50.36
2019-05-20T08:32:07.508Z,50.25
2019-05-20T08:35:37.653Z,50.09
2019-05-20T08:39:08.221Z,49.94
2019-05-20T08:42:38.359Z,49.8
2019-05-20T08:46:08.433Z,49.63
2019-05-20T08:49:38.910Z,49.48
2019-05-20T08:53:09.349Z,49.32
2019-05-20T08:56:39.505Z,49.2
2019-05-20T09:00:23.238Z,49.1
2019-05-20T09:03:54.443Z,49
2019-05-20T09:07:24.585Z,48.94
2019-05-20T09:10:54.713Z,48.87
2019-05-20T09:14:25.082Z,48.84
2019-05-20T09:17:55.267Z,48.77
2019-05-20T09:21:25.285Z,48.74
2019-05-20T09:24:55.427Z,48.68
2019-05-20T09:28:25.559Z,48.65
2019-05-20T09:31:55.759Z,48.58
2019-05-20T09:35:25.898Z,48.46
2019-05-20T09:38:55.984Z,48.36
2019-05-20T09:42:26.235Z,48.22
2019-05-20T09:46:06.386Z,48.08
2019-05-20T09:49:37.978Z,47.89
2019-05-20T09:53:08.257Z,47.72
2019-05-20T09:56:38.194Z,47.51
2019-05-20T10:00:08.680Z,47.29
2019-05-20T10:03:38.758Z,47.03
2019-05-20T10:07:09.108Z,46.74
2019-05-20T10:10:39.387Z,46.39
2019-05-20T10:14:09.504Z,46.03
2019-05-20T10:17:39.646Z,45.67
2019-05-20T10:21:09.814Z,45.27
2019-05-20T10:24:39.896Z,44.85
2019-05-20T10:28:10.033Z,44.43
2019-05-20T10:31:40.091Z,44
2019-05-20T10:35:10.351Z,43.57
2019-05-20T10:38:56.899Z,43.14
2019-05-20T10:42:29.059Z,42.65
2019-05-20T10:45:59.164Z,42.19
2019-05-20T10:49:29.304Z,41.78
2019-05-20T10:52:59.369Z,41.37
2019-05-20T10:56:29.544Z,40.91
2019-05-20T10:59:59.657Z,40.48
2019-05-20T11:00:15.953Z,40.45
2019-05-20T11:03:46.163Z,40.03
2019-05-20T11:07:16.319Z,39.63
2019-05-20T11:10:46.573Z,39.23
2019-05-20T11:14:16.800Z,38.89
2019-05-20T11:17:46.920Z,38.5
2019-05-20T11:21:17.178Z,38.19
2019-05-20T11:24:47.428Z,37.89
2019-05-20T11:28:17.601Z,37.58
2019-05-20T11:31:47.809Z,37.29
2019-05-20T11:35:18.520Z,36.98
2019-05-20T11:38:48.615Z,36.67
2019-05-20T11:42:18.729Z,36.39
2019-05-20T11:45:48.945Z,36.11
2019-05-20T11:49:19.082Z,35.83
2019-05-20T11:52:49.197Z,35.55
2019-05-20T11:56:19.379Z,35.26
2019-05-20T11:59:49.507Z,34.94
2019-05-20T12:03:19.581Z,34.67
2019-05-20T12:06:49.692Z,34.41
2019-05-20T12:10:19.847Z,34.17
2019-05-20T12:13:50.037Z,33.93
2019-05-20T12:17:20.137Z,33.77
2019-05-20T12:20:50.299Z,33.66
2019-05-20T12:24:20.390Z,33.54
2019-05-20T12:27:50.572Z,33.53
2019-05-20T12:31:20.669Z,33.54
2019-05-20T12:34:50.883Z,33.49
2019-05-20T12:38:21.055Z,33.48
2019-05-20T12:41:51.094Z,33.51
2019-05-20T12:45:21.278Z,33.5
2019-05-20T12:48:51.498Z,33.54
2019-05-20T12:52:21.687Z,33.64
2019-05-20T12:55:51.845Z,33.71
2019-05-20T12:59:21.911Z,33.78
2019-05-20T13:00:17.602Z,33.82
2019-05-20T13:03:47.569Z,33.87
2019-05-20T13:07:17.765Z,33.98
2019-05-20T13:10:47.886Z,34.06
2019-05-20T13:14:17.959Z,34.1
2019-05-20T13:17:48.050Z,34.16
2019-05-20T13:21:18.078Z,34.23
2019-05-20T13:24:48.219Z,34.32
2019-05-20T13:28:18.333Z,34.38
2019-05-20T13:31:48.465Z,34.48
2019-05-20T13:35:18.532Z,34.57
2019-05-20T13:38:48.488Z,34.67
2019-05-20T13:42:28.072Z,34.79
2019-05-20T13:45:58.168Z,34.86
2019-05-20T13:49:28.381Z,34.98
2019-05-20T13:52:58.512Z,35.1
2019-05-20T13:56:28.567Z,35.18
2019-05-20T13:59:58.839Z,35.17
2019-05-20T14:03:28.897Z,35.18
2019-05-20T14:06:59.191Z,35.17
2019-05-20T14:10:29.266Z,35.14
2019-05-20T14:13:59.471Z,35.11
2019-05-20T14:17:29.925Z,35.11
2019-05-20T14:21:00.069Z,35.09
2019-05-20T14:24:30.264Z,35.08
2019-05-20T14:28:00.287Z,35.07
2019-05-20T14:31:30.397Z,35.1
2019-05-20T14:35:00.499Z,35.08
2019-05-20T14:38:30.537Z,35.04
2019-05-20T14:42:00.591Z,35.05
2019-05-20T14:45:30.737Z,35.03
2019-05-20T14:49:02.659Z,35.01
2019-05-20T14:52:33.081Z,34.98
2019-05-20T14:56:03.163Z,34.96
2019-05-20T14:59:33.161Z,34.86
2019-05-20T15:00:16.162Z,34.88
2019-05-20T15:03:46.301Z,34.83
2019-05-20T15:07:29.030Z,34.74
2019-05-20T15:11:00.547Z,34.64
2019-05-20T15:14:30.549Z,34.46
2019-05-20T15:18:00.801Z,34.22
2019-05-20T15:21:30.807Z,34.03
2019-05-20T15:25:00.902Z,33.77
2019-05-20T15:28:30.956Z,33.54
2019-05-20T15:32:01.047Z,33.3
2019-05-20T15:35:31.173Z,33.04
2019-05-20T15:39:01.289Z,32.85
2019-05-20T15:42:31.600Z,32.6
2019-05-20T15:46:01.708Z,32.33
2019-05-20T15:49:31.811Z,32.15
2019-05-20T15:53:01.984Z,31.91
2019-05-20T15:56:32.143Z,31.67
2019-05-20T16:00:03.461Z,31.47
2019-05-20T16:03:33.489Z,31.22
2019-05-20T16:07:03.881Z,30.99
2019-05-20T16:10:34.043Z,30.78
2019-05-20T16:14:04.211Z,30.6
2019-05-20T16:17:34.277Z,30.44
2019-05-20T16:21:04.415Z,30.32
2019-05-20T16:24:34.586Z,30.25
2019-05-20T16:28:04.795Z,30.2
2019-05-20T16:31:35.082Z,30.19
2019-05-20T16:35:05.957Z,30.16
2019-05-20T16:38:36.150Z,30.11
2019-05-20T16:42:06.283Z,30.1
2019-05-20T16:45:36.445Z,30.09
2019-05-20T16:49:06.584Z,30.09
2019-05-20T16:52:36.688Z,30.04
2019-05-20T16:56:06.747Z,30.02
2019-05-20T16:59:36.795Z,30.05
2019-05-20T17:00:30.796Z,30.05
2019-05-20T17:04:02.211Z,30.09
2019-05-20T17:07:32.312Z,30.1
2019-05-20T17:11:02.470Z,30.2
2019-05-20T17:14:32.535Z,30.31
2019-05-20T17:18:02.816Z,30.39
2019-05-20T17:21:32.875Z,30.54
2019-05-20T17:25:03.094Z,30.67
2019-05-20T17:28:33.237Z,30.84
2019-05-20T17:32:03.323Z,31
2019-05-20T17:35:33.453Z,31.21
2019-05-20T17:39:05.544Z,31.42
2019-05-20T17:42:35.662Z,31.61
2019-05-20T17:46:05.861Z,31.83
2019-05-20T17:49:35.978Z,32.05
2019-05-20T17:53:06.166Z,32.31
2019-05-20T17:56:36.224Z,32.53
2019-05-20T18:00:07.229Z,32.74
2019-05-20T18:03:37.349Z,32.97
2019-05-20T18:07:07.474Z,33.22
2019-05-20T18:10:37.561Z,33.47
2019-05-20T18:14:07.737Z,33.74
2019-05-20T18:17:37.850Z,34
2019-05-20T18:21:08.075Z,34.26
2019-05-20T18:24:38.093Z,34.51
2019-05-20T18:28:08.381Z,34.75
2019-05-20T18:31:38.518Z,35.04
2019-05-20T18:35:09.699Z,35.3
2019-05-20T18:38:39.868Z,35.53
2019-05-20T18:42:10.060Z,35.79
2019-05-20T18:45:40.196Z,36.02
2019-05-20T18:49:10.240Z,36.23
2019-05-20T18:52:40.358Z,36.46
2019-05-20T18:56:10.423Z,36.66
2019-05-20T18:59:40.543Z,36.85
2019-05-20T19:00:15.971Z,36.89
2019-05-20T19:03:46.348Z,37.08
2019-05-20T19:07:16.691Z,37.26
2019-05-20T19:10:46.827Z,37.44
2019-05-20T19:14:17.042Z,37.61
2019-05-20T19:17:47.113Z,37.75
2019-05-20T19:21:17.145Z,37.95
2019-05-20T19:24:47.202Z,38.1
2019-05-20T19:28:17.320Z,38.25
2019-05-20T19:32:00.697Z,38.42
2019-05-20T19:35:31.579Z,38.58
2019-05-20T19:39:01.656Z,38.75
2019-05-20T19:42:31.828Z,38.93
2019-05-20T19:46:01.985Z,39.06
2019-05-20T19:49:32.089Z,39.23
2019-05-20T19:53:02.290Z,39.39
2019-05-20T19:56:32.515Z,39.55
2019-05-20T20:00:03.442Z,39.72
2019-05-20T20:03:33.563Z,39.87
2019-05-20T20:07:03.701Z,40.04
2019-05-20T20:10:33.927Z,40.2
2019-05-20T20:14:04.090Z,40.37
2019-05-20T20:17:34.145Z,40.54
2019-05-20T20:21:04.144Z,40.71
2019-05-20T20:24:34.200Z,40.91
2019-05-20T20:28:04.320Z,41.09
2019-05-20T20:31:34.472Z,41.29
2019-05-20T20:35:05.152Z,41.47
2019-05-20T20:38:35.211Z,41.67
2019-05-20T20:42:05.351Z,41.85
2019-05-20T20:45:35.403Z,42.05
2019-05-20T20:49:05.585Z,42.26
2019-05-20T20:52:35.759Z,42.44
2019-05-20T20:56:05.893Z,42.62
2019-05-20T20:59:36.127Z,42.82
2019-05-20T21:00:16.695Z,42.84
2019-05-20T21:03:46.841Z,43.02
2019-05-20T21:07:16.979Z,43.23
2019-05-20T21:10:47.130Z,43.37
2019-05-20T21:14:17.134Z,43.56
2019-05-20T21:17:47.285Z,43.74
2019-05-20T21:21:17.360Z,43.88
2019-05-20T21:24:47.448Z,44.07
2019-05-20T21:28:17.555Z,44.22
2019-05-20T21:31:47.710Z,44.38
2019-05-20T21:35:17.765Z,44.56
2019-05-20T21:38:47.819Z,44.73
2019-05-20T21:42:17.961Z,44.89
2019-05-20T21:45:48.105Z,45.06
2019-05-20T21:49:18.192Z,45.21
2019-05-20T21:52:48.384Z,45.34
2019-05-20T21:56:18.435Z,45.5
2019-05-20T21:59:48.537Z,45.64
2019-05-20T22:03:24.452Z,45.78
2019-05-20T22:06:55.211Z,45.93
2019-05-20T22:10:25.367Z,46.05
2019-05-20T22:13:55.459Z,46.2
2019-05-20T22:17:25.627Z,46.34
2019-05-20T22:20:55.776Z,46.49
2019-05-20T22:24:25.933Z,46.6
2019-05-20T22:27:56.040Z,46.74
2019-05-20T22:31:26.228Z,46.89
2019-05-20T22:34:56.313Z,47.01
2019-05-20T22:38:26.416Z,47.12
2019-05-20T22:41:56.418Z,47.25
2019-05-20T22:45:26.531Z,47.37
2019-05-20T22:48:56.789Z,47.52
2019-05-20T22:52:26.958Z,47.65
2019-05-20T22:55:57.009Z,47.8
2019-05-20T22:59:27.067Z,47.96
2019-05-20T23:00:16.029Z,47.98
2019-05-20T23:03:56.142Z,48.13
2019-05-20T23:07:26.713Z,48.26
2019-05-20T23:10:56.793Z,48.43
2019-05-20T23:14:26.857Z,48.57
2019-05-20T23:17:56.945Z,48.69
2019-05-20T23:21:26.995Z,48.83
2019-05-20T23:24:57.053Z,48.98
2019-05-20T23:28:27.156Z,49.12
2019-05-20T23:31:57.122Z,49.23
2019-05-20T23:35:27.213Z,49.38
2019-05-20T23:38:57.357Z,49.5
2019-05-20T23:42:27.442Z,49.64
2019-05-20T23:45:57.450Z,49.76
2019-05-20T23:49:27.504Z,49.93
2019-05-20T23:52:57.586Z,50.06
2019-05-20T23:56:27.613Z,50.21
2019-05-20T23:59:57.658Z,50.37
